sensor_id;sensor_type;location;lat;lon;timestamp;pressure;altitude;pressure_sealevel;temperature;humidity
48882;BME280;57063;51.406;-2.402;2023-02-22T00:00:39;100161.44;;;5.47;100.00
48882;BME280;57063;51.406;-2.402;2023-02-22T00:03:22;100167.78;;;5.59;100.00
48882;BME280;57063;51.406;-2.402;2023-02-22T00:05:54;100166.28;;;5.53;100.00
48882;BME280;57063;51.406;-2.402;2023-02-22T00:08:23;100188.53;;;5.73;100.00
48882;BME280;57063;51.406;-2.402;2023-02-22T00:10:49;100163.34;;;5.63;100.00
48882;BME280;57063;51.406;-2.402;2023-02-22T00:13:18;100165.72;;;5.67;100.00
48882;BME280;57063;51.406;-2.402;2023-02-22T00:15:47;100183.34;;;5.75;100.00
48882;BME280;57063;51.406;-2.402;2023-02-22T00:18:15;100174.75;;;5.76;100.00
48882;BME280;57063;51.406;-2.402;2023-02-22T00:20:41;100163.13;;;5.69;100.00
48882;BME280;57063;51.406;-2.402;2023-02-22T00:23:12;100170.03;;;5.67;100.00
48882;BME280;57063;51.406;-2.402;2023-02-22T00:25:38;100154.91;;;5.61;100.00
48882;BME280;57063;51.406;-2.402;2023-02-22T00:28:04;100166.38;;;5.72;100.00
48882;BME280;57063;51.406;-2.402;2023-02-22T00:30:30;100146.34;;;5.62;100.00
48882;BME280;57063;51.406;-2.402;2023-02-22T00:32:58;100188.22;;;5.81;100.00
48882;BME280;57063;51.406;-2.402;2023-02-22T00:35:26;100138.41;;;5.47;100.00
48882;BME280;57063;51.406;-2.402;2023-02-22T00:37:54;100185.78;;;5.78;100.00
48882;BME280;57063;51.406;-2.402;2023-02-22T00:40:22;100176.41;;;5.77;100.00
48882;BME280;57063;51.406;-2.402;2023-02-22T00:42:48;100139.94;;;5.51;100.00
48882;BME280;57063;51.406;-2.402;2023-02-22T00:45:20;100172.97;;;5.78;100.00
48882;BME280;57063;51.406;-2.402;2023-02-22T00:47:46;100169.38;;;5.62;100.00
48882;BME280;57063;51.406;-2.402;2023-02-22T00:50:12;100140.81;;;5.50;100.00
48882;BME280;57063;51.406;-2.402;2023-02-22T00:52:37;100165.53;;;5.72;100.00
48882;BME280;57063;51.406;-2.402;2023-02-22T00:55:06;100161.31;;;5.71;100.00
48882;BME280;57063;51.406;-2.402;2023-02-22T00:57:32;100133.00;;;5.53;100.00
48882;BME280;57063;51.406;-2.402;2023-02-22T01:00:00;100127.88;;;5.53;100.00
48882;BME280;57063;51.406;-2.402;2023-02-22T01:02:37;100113.31;;;5.55;100.00
48882;BME280;57063;51.406;-2.402;2023-02-22T01:05:03;100122.47;;;5.61;100.00
48882;BME280;57063;51.406;-2.402;2023-02-22T01:07:29;100124.91;;;5.64;100.00
48882;BME280;57063;51.406;-2.402;2023-02-22T01:09:55;100129.06;;;5.67;100.00
48882;BME280;57063;51.406;-2.402;2023-02-22T01:12:20;100118.03;;;5.65;100.00
48882;BME280;57063;51.406;-2.402;2023-02-22T01:14:47;100121.25;;;5.49;100.00
48882;BME280;57063;51.406;-2.402;2023-02-22T01:17:12;100126.00;;;5.58;100.00
48882;BME280;57063;51.406;-2.402;2023-02-22T01:19:38;100097.63;;;5.43;100.00
48882;BME280;57063;51.406;-2.402;2023-02-22T01:22:07;100110.09;;;5.50;100.00
48882;BME280;57063;51.406;-2.402;2023-02-22T01:24:33;100109.88;;;5.56;100.00
48882;BME280;57063;51.406;-2.402;2023-02-22T01:26:59;100108.63;;;5.65;100.00
48882;BME280;57063;51.406;-2.402;2023-02-22T01:29:26;100107.84;;;5.63;100.00
48882;BME280;57063;51.406;-2.402;2023-02-22T01:31:53;100090.97;;;5.59;100.00
48882;BME280;57063;51.406;-2.402;2023-02-22T01:34:20;100113.56;;;5.70;100.00
48882;BME280;57063;51.406;-2.402;2023-02-22T01:36:46;100095.63;;;5.70;100.00
48882;BME280;57063;51.406;-2.402;2023-02-22T01:39:12;100097.22;;;5.72;100.00
48882;BME280;57063;51.406;-2.402;2023-02-22T01:41:37;100089.88;;;5.65;100.00
48882;BME280;57063;51.406;-2.402;2023-02-22T01:46:52;100113.31;;;5.76;100.00
48882;BME280;57063;51.406;-2.402;2023-02-22T01:49:18;100078.09;;;5.61;100.00
48882;BME280;57063;51.406;-2.402;2023-02-22T01:51:48;100091.56;;;5.66;100.00
48882;BME280;57063;51.406;-2.402;2023-02-22T01:54:28;100095.13;;;5.62;100.00
48882;BME280;57063;51.406;-2.402;2023-02-22T01:57:00;100068.78;;;5.39;100.00
48882;BME280;57063;51.406;-2.402;2023-02-22T01:59:27;100106.91;;;5.66;100.00
48882;BME280;57063;51.406;-2.402;2023-02-22T02:01:54;100087.97;;;5.29;100.00
48882;BME280;57063;51.406;-2.402;2023-02-22T02:04:21;100090.47;;;5.30;100.00
48882;BME280;57063;51.406;-2.402;2023-02-22T02:06:51;100095.34;;;5.36;100.00
48882;BME280;57063;51.406;-2.402;2023-02-22T02:09:41;100108.88;;;5.39;100.00
48882;BME280;57063;51.406;-2.402;2023-02-22T02:12:10;100091.16;;;5.34;100.00
48882;BME280;57063;51.406;-2.402;2023-02-22T02:14:37;100091.69;;;5.42;100.00
48882;BME280;57063;51.406;-2.402;2023-02-22T02:17:07;100079.53;;;5.27;100.00
48882;BME280;57063;51.406;-2.402;2023-02-22T02:20:12;100091.56;;;5.45;100.00
48882;BME280;57063;51.406;-2.402;2023-02-22T02:25:32;100103.53;;;5.45;100.00
48882;BME280;57063;51.406;-2.402;2023-02-22T02:31:22;100092.97;;;5.32;100.00
48882;BME280;57063;51.406;-2.402;2023-02-22T02:34:22;100087.72;;;5.35;100.00
48882;BME280;57063;51.406;-2.402;2023-02-22T02:37:02;100070.31;;;5.23;100.00
48882;BME280;57063;51.406;-2.402;2023-02-22T02:39:34;100081.81;;;5.33;100.00
48882;BME280;57063;51.406;-2.402;2023-02-22T02:42:06;100046.06;;;5.11;100.00
48882;BME280;57063;51.406;-2.402;2023-02-22T02:44:38;100057.91;;;5.13;100.00
48882;BME280;57063;51.406;-2.402;2023-02-22T02:47:12;100053.09;;;5.26;100.00
48882;BME280;57063;51.406;-2.402;2023-02-22T02:50:04;100077.47;;;5.35;100.00
48882;BME280;57063;51.406;-2.402;2023-02-22T02:52:32;100040.75;;;5.15;100.00
48882;BME280;57063;51.406;-2.402;2023-02-22T02:54:59;100030.69;;;5.31;100.00
48882;BME280;57063;51.406;-2.402;2023-02-22T02:57:27;100021.44;;;5.29;100.00
48882;BME280;57063;51.406;-2.402;2023-02-22T02:59:52;100050.66;;;5.44;100.00
48882;BME280;57063;51.406;-2.402;2023-02-22T03:08:00;100057.78;;;5.37;100.00
48882;BME280;57063;51.406;-2.402;2023-02-22T03:13:41;100057.00;;;5.35;100.00
48882;BME280;57063;51.406;-2.402;2023-02-22T03:19:30;100046.78;;;5.35;100.00
48882;BME280;57063;51.406;-2.402;2023-02-22T03:22:43;100041.50;;;5.38;100.00
48882;BME280;57063;51.406;-2.402;2023-02-22T03:25:23;100032.19;;;5.37;100.00
48882;BME280;57063;51.406;-2.402;2023-02-22T03:27:50;100034.56;;;5.42;100.00
48882;BME280;57063;51.406;-2.402;2023-02-22T03:30:41;100039.59;;;5.43;100.00
48882;BME280;57063;51.406;-2.402;2023-02-22T03:33:24;100018.00;;;5.30;100.00
48882;BME280;57063;51.406;-2.402;2023-02-22T03:36:01;100011.47;;;5.23;100.00
48882;BME280;57063;51.406;-2.402;2023-02-22T03:38:30;100021.22;;;5.33;100.00
48882;BME280;57063;51.406;-2.402;2023-02-22T03:41:00;100015.56;;;5.27;100.00
48882;BME280;57063;51.406;-2.402;2023-02-22T03:43:47;100019.44;;;5.35;100.00
48882;BME280;57063;51.406;-2.402;2023-02-22T03:46:15;100012.09;;;5.28;100.00
48882;BME280;57063;51.406;-2.402;2023-02-22T03:48:53;100014.47;;;5.32;100.00
48882;BME280;57063;51.406;-2.402;2023-02-22T03:51:23;99995.97;;;5.26;100.00
48882;BME280;57063;51.406;-2.402;2023-02-22T03:53:49;99989.22;;;5.25;100.00
48882;BME280;57063;51.406;-2.402;2023-02-22T03:56:24;100014.00;;;5.43;100.00
48882;BME280;57063;51.406;-2.402;2023-02-22T03:58:52;99994.06;;;5.31;100.00
48882;BME280;57063;51.406;-2.402;2023-02-22T04:01:18;99984.88;;;5.27;100.00
48882;BME280;57063;51.406;-2.402;2023-02-22T04:03:44;100010.13;;;5.34;100.00
48882;BME280;57063;51.406;-2.402;2023-02-22T04:06:10;99983.28;;;5.24;100.00
48882;BME280;57063;51.406;-2.402;2023-02-22T04:08:36;99977.94;;;5.29;100.00
48882;BME280;57063;51.406;-2.402;2023-02-22T04:11:01;99993.72;;;5.39;100.00
48882;BME280;57063;51.406;-2.402;2023-02-22T04:13:27;99986.03;;;5.20;100.00
48882;BME280;57063;51.406;-2.402;2023-02-22T04:15:53;100000.44;;;5.41;100.00
48882;BME280;57063;51.406;-2.402;2023-02-22T04:18:19;99993.66;;;5.40;100.00
48882;BME280;57063;51.406;-2.402;2023-02-22T04:20:44;99966.81;;;5.30;100.00
48882;BME280;57063;51.406;-2.402;2023-02-22T04:23:10;99993.53;;;5.43;100.00
48882;BME280;57063;51.406;-2.402;2023-02-22T04:25:36;100002.88;;;5.44;100.00
48882;BME280;57063;51.406;-2.402;2023-02-22T04:28:01;99971.94;;;5.30;100.00
48882;BME280;57063;51.406;-2.402;2023-02-22T04:30:27;99963.88;;;5.19;100.00
48882;BME280;57063;51.406;-2.402;2023-02-22T04:32:55;99973.78;;;5.26;100.00
48882;BME280;57063;51.406;-2.402;2023-02-22T04:35:20;99981.53;;;5.44;100.00
48882;BME280;57063;51.406;-2.402;2023-02-22T04:37:46;99985.22;;;5.38;100.00
48882;BME280;57063;51.406;-2.402;2023-02-22T04:40:12;99967.25;;;5.19;100.00
48882;BME280;57063;51.406;-2.402;2023-02-22T04:42:38;99956.81;;;5.24;100.00
48882;BME280;57063;51.406;-2.402;2023-02-22T04:45:05;99968.75;;;5.25;100.00
48882;BME280;57063;51.406;-2.402;2023-02-22T04:47:32;99959.47;;;5.22;100.00
48882;BME280;57063;51.406;-2.402;2023-02-22T04:49:58;99960.28;;;5.23;100.00
48882;BME280;57063;51.406;-2.402;2023-02-22T04:52:25;99957.31;;;5.13;100.00
48882;BME280;57063;51.406;-2.402;2023-02-22T04:54:51;99956.66;;;5.08;100.00
48882;BME280;57063;51.406;-2.402;2023-02-22T04:57:17;99952.13;;;5.14;100.00
48882;BME280;57063;51.406;-2.402;2023-02-22T04:59:42;99984.00;;;5.26;100.00
48882;BME280;57063;51.406;-2.402;2023-02-22T05:02:08;99979.09;;;5.22;100.00
48882;BME280;57063;51.406;-2.402;2023-02-22T05:04:33;99983.81;;;5.31;100.00
48882;BME280;57063;51.406;-2.402;2023-02-22T05:07:00;99984.19;;;5.22;100.00
48882;BME280;57063;51.406;-2.402;2023-02-22T05:09:25;99989.91;;;5.28;100.00
48882;BME280;57063;51.406;-2.402;2023-02-22T05:11:51;99974.69;;;5.25;100.00
48882;BME280;57063;51.406;-2.402;2023-02-22T05:14:16;99966.44;;;5.19;100.00
48882;BME280;57063;51.406;-2.402;2023-02-22T05:16:42;99971.59;;;5.38;100.00
48882;BME280;57063;51.406;-2.402;2023-02-22T05:19:08;99944.50;;;5.13;100.00
48882;BME280;57063;51.406;-2.402;2023-02-22T05:21:33;99953.63;;;5.19;100.00
48882;BME280;57063;51.406;-2.402;2023-02-22T05:23:59;99958.75;;;5.19;100.00
48882;BME280;57063;51.406;-2.402;2023-02-22T05:26:24;99964.16;;;5.12;100.00
48882;BME280;57063;51.406;-2.402;2023-02-22T05:28:50;99972.38;;;5.19;100.00
48882;BME280;57063;51.406;-2.402;2023-02-22T05:31:15;99950.94;;;5.22;100.00
48882;BME280;57063;51.406;-2.402;2023-02-22T05:33:41;99957.25;;;5.14;100.00
48882;BME280;57063;51.406;-2.402;2023-02-22T05:36:08;99960.94;;;5.28;100.00
48882;BME280;57063;51.406;-2.402;2023-02-22T05:38:35;99933.38;;;5.14;100.00
48882;BME280;57063;51.406;-2.402;2023-02-22T05:41:08;99954.91;;;5.29;100.00
48882;BME280;57063;51.406;-2.402;2023-02-22T05:43:35;99945.63;;;5.26;100.00
48882;BME280;57063;51.406;-2.402;2023-02-22T05:46:01;99955.19;;;5.23;100.00
48882;BME280;57063;51.406;-2.402;2023-02-22T05:48:26;99979.06;;;5.42;100.00
48882;BME280;57063;51.406;-2.402;2023-02-22T05:50:52;99934.56;;;5.26;100.00
48882;BME280;57063;51.406;-2.402;2023-02-22T05:53:17;99943.63;;;5.33;100.00
48882;BME280;57063;51.406;-2.402;2023-02-22T05:55:43;99931.03;;;5.28;100.00
48882;BME280;57063;51.406;-2.402;2023-02-22T05:58:08;99934.50;;;5.27;100.00
48882;BME280;57063;51.406;-2.402;2023-02-22T06:00:34;99975.50;;;5.46;100.00
48882;BME280;57063;51.406;-2.402;2023-02-22T06:03:06;99961.16;;;5.42;100.00
48882;BME280;57063;51.406;-2.402;2023-02-22T06:05:32;99966.13;;;5.45;100.00
48882;BME280;57063;51.406;-2.402;2023-02-22T06:07:58;99968.50;;;5.50;100.00
48882;BME280;57063;51.406;-2.402;2023-02-22T06:10:24;99949.25;;;5.41;100.00
48882;BME280;57063;51.406;-2.402;2023-02-22T06:12:52;99970.81;;;5.56;100.00
48882;BME280;57063;51.406;-2.402;2023-02-22T06:15:19;99928.91;;;5.38;100.00
48882;BME280;57063;51.406;-2.402;2023-02-22T06:17:45;99959.59;;;5.58;100.00
48882;BME280;57063;51.406;-2.402;2023-02-22T06:20:13;99938.69;;;5.49;100.00
48882;BME280;57063;51.406;-2.402;2023-02-22T06:22:39;99935.44;;;5.45;100.00
48882;BME280;57063;51.406;-2.402;2023-02-22T06:25:08;99941.78;;;5.55;100.00
48882;BME280;57063;51.406;-2.402;2023-02-22T06:27:34;99964.28;;;5.49;100.00
48882;BME280;57063;51.406;-2.402;2023-02-22T06:30:00;99955.50;;;5.54;100.00
48882;BME280;57063;51.406;-2.402;2023-02-22T06:32:26;99939.56;;;5.48;100.00
48882;BME280;57063;51.406;-2.402;2023-02-22T06:34:52;99929.75;;;5.20;100.00
48882;BME280;57063;51.406;-2.402;2023-02-22T06:37:17;99946.56;;;5.44;100.00
48882;BME280;57063;51.406;-2.402;2023-02-22T06:39:43;99942.13;;;5.48;100.00
48882;BME280;57063;51.406;-2.402;2023-02-22T06:42:08;99940.97;;;5.55;100.00
48882;BME280;57063;51.406;-2.402;2023-02-22T06:44:34;99953.56;;;5.60;100.00
48882;BME280;57063;51.406;-2.402;2023-02-22T06:47:01;99964.63;;;5.60;100.00
48882;BME280;57063;51.406;-2.402;2023-02-22T06:49:26;99928.78;;;5.41;100.00
48882;BME280;57063;51.406;-2.402;2023-02-22T06:51:53;99973.28;;;5.76;100.00
48882;BME280;57063;51.406;-2.402;2023-02-22T06:54:19;99929.81;;;5.37;100.00
48882;BME280;57063;51.406;-2.402;2023-02-22T06:56:45;99950.53;;;5.51;100.00
48882;BME280;57063;51.406;-2.402;2023-02-22T06:59:11;99942.75;;;5.53;100.00
48882;BME280;57063;51.406;-2.402;2023-02-22T07:01:39;99978.63;;;5.72;100.00
48882;BME280;57063;51.406;-2.402;2023-02-22T07:04:05;99971.97;;;5.68;100.00
48882;BME280;57063;51.406;-2.402;2023-02-22T07:06:30;99967.75;;;5.67;100.00
48882;BME280;57063;51.406;-2.402;2023-02-22T07:08:56;99953.31;;;5.66;100.00
48882;BME280;57063;51.406;-2.402;2023-02-22T07:11:21;99965.03;;;5.70;100.00
48882;BME280;57063;51.406;-2.402;2023-02-22T07:13:47;99953.22;;;5.67;100.00
48882;BME280;57063;51.406;-2.402;2023-02-22T07:16:12;99963.25;;;5.72;100.00
48882;BME280;57063;51.406;-2.402;2023-02-22T07:18:38;99942.22;;;5.65;100.00
48882;BME280;57063;51.406;-2.402;2023-02-22T07:21:04;99974.59;;;5.85;100.00
48882;BME280;57063;51.406;-2.402;2023-02-22T07:23:30;99952.75;;;5.78;100.00
48882;BME280;57063;51.406;-2.402;2023-02-22T07:25:59;99955.94;;;5.83;100.00
48882;BME280;57063;51.406;-2.402;2023-02-22T07:28:24;99948.44;;;5.78;100.00
48882;BME280;57063;51.406;-2.402;2023-02-22T07:30:50;99943.03;;;5.85;100.00
48882;BME280;57063;51.406;-2.402;2023-02-22T07:33:15;99935.56;;;5.80;100.00
48882;BME280;57063;51.406;-2.402;2023-02-22T07:35:49;99968.00;;;6.00;100.00
48882;BME280;57063;51.406;-2.402;2023-02-22T07:38:16;99974.56;;;6.06;100.00
48882;BME280;57063;51.406;-2.402;2023-02-22T07:40:43;99974.50;;;6.07;100.00
48882;BME280;57063;51.406;-2.402;2023-02-22T07:45:57;99950.28;;;5.95;100.00
48882;BME280;57063;51.406;-2.402;2023-02-22T07:48:27;99969.28;;;6.09;100.00
48882;BME280;57063;51.406;-2.402;2023-02-22T07:50:56;99952.63;;;6.00;100.00
48882;BME280;57063;51.406;-2.402;2023-02-22T07:53:25;99974.75;;;6.20;100.00
48882;BME280;57063;51.406;-2.402;2023-02-22T07:56:02;99980.63;;;6.22;100.00
48882;BME280;57063;51.406;-2.402;2023-02-22T07:58:35;99980.66;;;6.39;100.00
48882;BME280;57063;51.406;-2.402;2023-02-22T08:01:03;99992.41;;;6.43;100.00
48882;BME280;57063;51.406;-2.402;2023-02-22T08:03:33;99994.91;;;6.45;100.00
48882;BME280;57063;51.406;-2.402;2023-02-22T08:06:01;99968.34;;;6.29;100.00
48882;BME280;57063;51.406;-2.402;2023-02-22T08:08:27;100012.50;;;6.53;100.00
48882;BME280;57063;51.406;-2.402;2023-02-22T08:10:54;100011.91;;;6.65;100.00
48882;BME280;57063;51.406;-2.402;2023-02-22T08:13:20;99996.53;;;6.65;100.00
48882;BME280;57063;51.406;-2.402;2023-02-22T08:15:46;99991.72;;;6.59;100.00
48882;BME280;57063;51.406;-2.402;2023-02-22T08:18:16;99983.84;;;6.62;100.00
48882;BME280;57063;51.406;-2.402;2023-02-22T08:20:44;100004.00;;;6.70;100.00
48882;BME280;57063;51.406;-2.402;2023-02-22T08:23:11;100000.31;;;6.75;100.00
48882;BME280;57063;51.406;-2.402;2023-02-22T08:25:37;100017.38;;;6.94;100.00
48882;BME280;57063;51.406;-2.402;2023-02-22T08:28:09;99985.38;;;6.49;100.00
48882;BME280;57063;51.406;-2.402;2023-02-22T08:30:36;99999.63;;;6.72;100.00
48882;BME280;57063;51.406;-2.402;2023-02-22T08:33:02;99990.28;;;6.71;100.00
48882;BME280;57063;51.406;-2.402;2023-02-22T08:35:29;99985.28;;;6.68;100.00
48882;BME280;57063;51.406;-2.402;2023-02-22T08:37:58;99986.75;;;6.73;100.00
48882;BME280;57063;51.406;-2.402;2023-02-22T08:40:27;100002.56;;;6.99;100.00
48882;BME280;57063;51.406;-2.402;2023-02-22T08:42:53;100011.78;;;7.03;100.00
48882;BME280;57063;51.406;-2.402;2023-02-22T08:45:19;99981.81;;;7.03;100.00
48882;BME280;57063;51.406;-2.402;2023-02-22T08:47:46;100011.91;;;7.35;100.00
48882;BME280;57063;51.406;-2.402;2023-02-22T08:50:31;99994.00;;;7.33;100.00
48882;BME280;57063;51.406;-2.402;2023-02-22T08:53:02;100004.88;;;7.38;100.00
48882;BME280;57063;51.406;-2.402;2023-02-22T08:55:33;100008.56;;;7.50;100.00
48882;BME280;57063;51.406;-2.402;2023-02-22T08:58:00;99998.97;;;7.69;100.00
48882;BME280;57063;51.406;-2.402;2023-02-22T09:00:28;100015.66;;;7.78;100.00
48882;BME280;57063;51.406;-2.402;2023-02-22T09:03:00;100022.13;;;7.85;100.00
48882;BME280;57063;51.406;-2.402;2023-02-22T09:05:26;100010.59;;;7.77;100.00
48882;BME280;57063;51.406;-2.402;2023-02-22T09:07:52;100004.63;;;7.76;100.00
48882;BME280;57063;51.406;-2.402;2023-02-22T09:10:21;100039.72;;;7.93;100.00
48882;BME280;57063;51.406;-2.402;2023-02-22T09:12:58;100023.44;;;7.77;100.00
48882;BME280;57063;51.406;-2.402;2023-02-22T09:15:26;100023.19;;;7.81;100.00
48882;BME280;57063;51.406;-2.402;2023-02-22T09:17:52;100015.81;;;7.75;100.00
48882;BME280;57063;51.406;-2.402;2023-02-22T09:20:19;100018.47;;;7.74;100.00
48882;BME280;57063;51.406;-2.402;2023-02-22T09:22:46;100033.25;;;7.86;100.00
48882;BME280;57063;51.406;-2.402;2023-02-22T09:25:13;100051.75;;;8.08;100.00
48882;BME280;57063;51.406;-2.402;2023-02-22T09:27:39;100025.94;;;7.78;100.00
48882;BME280;57063;51.406;-2.402;2023-02-22T09:30:06;100016.97;;;7.69;100.00
48882;BME280;57063;51.406;-2.402;2023-02-22T09:32:35;100036.47;;;7.89;100.00
48882;BME280;57063;51.406;-2.402;2023-02-22T09:35:01;100033.31;;;7.84;100.00
48882;BME280;57063;51.406;-2.402;2023-02-22T09:37:27;100052.22;;;7.99;100.00
48882;BME280;57063;51.406;-2.402;2023-02-22T09:39:53;100042.03;;;7.98;100.00
48882;BME280;57063;51.406;-2.402;2023-02-22T09:42:30;100032.75;;;8.11;100.00
48882;BME280;57063;51.406;-2.402;2023-02-22T09:45:14;100052.19;;;8.48;100.00
48882;BME280;57063;51.406;-2.402;2023-02-22T09:47:49;100073.72;;;8.93;100.00
48882;BME280;57063;51.406;-2.402;2023-02-22T09:50:31;100065.16;;;10.09;96.02
48882;BME280;57063;51.406;-2.402;2023-02-22T09:53:04;100050.63;;;10.37;92.43
48882;BME280;57063;51.406;-2.402;2023-02-22T09:55:38;100062.63;;;12.68;80.47
48882;BME280;57063;51.406;-2.402;2023-02-22T09:58:19;100055.97;;;14.36;71.26
48882;BME280;57063;51.406;-2.402;2023-02-22T10:00:48;100095.19;;;17.40;58.74
48882;BME280;57063;51.406;-2.402;2023-02-22T10:03:26;100142.28;;;22.48;47.16
48882;BME280;57063;51.406;-2.402;2023-02-22T10:06:09;100145.03;;;24.66;40.29
48882;BME280;57063;51.406;-2.402;2023-02-22T10:08:37;100117.69;;;23.33;40.84
48882;BME280;57063;51.406;-2.402;2023-02-22T10:20:17;100089.69;;;22.94;37.75
48882;BME280;57063;51.406;-2.402;2023-02-22T10:25:26;100088.91;;;17.90;48.08
48882;BME280;57063;51.406;-2.402;2023-02-22T10:28:22;100094.97;;;16.85;49.79
48882;BME280;57063;51.406;-2.402;2023-02-22T10:30:57;100109.94;;;17.88;47.59
48882;BME280;57063;51.406;-2.402;2023-02-22T10:33:26;100113.34;;;21.69;40.38
48882;BME280;57063;51.406;-2.402;2023-02-22T10:35:55;100284.69;;;23.85;35.53
48882;BME280;57063;51.406;-2.402;2023-02-22T10:38:24;100204.06;;;25.23;33.59
48882;BME280;57063;51.406;-2.402;2023-02-22T10:43:28;100159.09;;;24.22;33.60
48882;BME280;57063;51.406;-2.402;2023-02-22T10:45:57;100073.06;;;24.78;32.28
48882;BME280;57063;51.406;-2.402;2023-02-22T10:48:27;100102.25;;;26.38;30.77
48882;BME280;57063;51.406;-2.402;2023-02-22T10:51:00;100136.91;;;24.01;34.06
48882;BME280;57063;51.406;-2.402;2023-02-22T10:53:27;100134.00;;;19.81;39.68
48882;BME280;57063;51.406;-2.402;2023-02-22T11:06:25;100119.03;;;13.82;51.44
48882;BME280;57063;51.406;-2.402;2023-02-22T11:09:13;100122.84;;;12.59;55.83
48882;BME280;57063;51.406;-2.402;2023-02-22T11:11:42;100138.16;;;12.12;60.01
48882;BME280;57063;51.406;-2.402;2023-02-22T11:14:09;100120.47;;;11.93;60.85
48882;BME280;57063;51.406;-2.402;2023-02-22T11:16:44;100119.59;;;11.42;62.37
48882;BME280;57063;51.406;-2.402;2023-02-22T11:19:21;100103.75;;;11.21;61.98
48882;BME280;57063;51.406;-2.402;2023-02-22T11:21:51;100127.50;;;11.66;61.34
48882;BME280;57063;51.406;-2.402;2023-02-22T11:24:19;100112.00;;;12.78;57.80
48882;BME280;57063;51.406;-2.402;2023-02-22T11:26:52;100124.31;;;12.74;58.41
48882;BME280;57063;51.406;-2.402;2023-02-22T11:29:39;100138.16;;;13.10;57.89
48882;BME280;57063;51.406;-2.402;2023-02-22T11:32:17;100124.53;;;13.19;56.07
48882;BME280;57063;51.406;-2.402;2023-02-22T11:34:48;100124.91;;;13.73;54.57
48882;BME280;57063;51.406;-2.402;2023-02-22T11:37:33;100141.91;;;13.06;56.48
48882;BME280;57063;51.406;-2.402;2023-02-22T11:40:21;100116.53;;;13.22;55.12
48882;BME280;57063;51.406;-2.402;2023-02-22T11:43:18;100110.81;;;12.58;54.87
48882;BME280;57063;51.406;-2.402;2023-02-22T11:46:08;100134.47;;;12.77;55.49
48882;BME280;57063;51.406;-2.402;2023-02-22T11:48:36;100128.25;;;12.56;56.79
48882;BME280;57063;51.406;-2.402;2023-02-22T11:51:29;100120.03;;;12.25;57.25
48882;BME280;57063;51.406;-2.402;2023-02-22T11:59:43;100144.66;;;11.79;59.60
48882;BME280;57063;51.406;-2.402;2023-02-22T12:02:34;100140.94;;;11.96;58.67
48882;BME280;57063;51.406;-2.402;2023-02-22T12:13:25;100136.03;;;15.18;48.23
48882;BME280;57063;51.406;-2.402;2023-02-22T12:18:46;100139.91;;;14.59;49.96
48882;BME280;57063;51.406;-2.402;2023-02-22T12:21:20;100134.84;;;13.32;51.92
48882;BME280;57063;51.406;-2.402;2023-02-22T12:24:07;100124.16;;;13.24;52.30
48882;BME280;57063;51.406;-2.402;2023-02-22T12:27:01;100130.97;;;12.29;54.10
48882;BME280;57063;51.406;-2.402;2023-02-22T12:35:31;100122.34;;;12.78;54.49
48882;BME280;57063;51.406;-2.402;2023-02-22T12:40:13;100149.94;;;12.66;54.05
48882;BME280;57063;51.406;-2.402;2023-02-22T12:43:13;100144.59;;;12.43;54.34
48882;BME280;57063;51.406;-2.402;2023-02-22T12:46:05;100105.22;;;12.27;54.25
48882;BME280;57063;51.406;-2.402;2023-02-22T12:51:57;100111.19;;;15.67;48.71
48882;BME280;57063;51.406;-2.402;2023-02-22T12:54:45;100140.19;;;15.41;48.89
48882;BME280;57063;51.406;-2.402;2023-02-22T12:59:55;100103.88;;;13.42;50.38
48882;BME280;57063;51.406;-2.402;2023-02-22T13:02:27;100125.66;;;13.86;50.88
48882;BME280;57063;51.406;-2.402;2023-02-22T13:05:03;100103.75;;;12.60;52.26
48882;BME280;57063;51.406;-2.402;2023-02-22T13:07:47;100129.25;;;12.53;53.38
48882;BME280;57063;51.406;-2.402;2023-02-22T13:21:56;100110.84;;;11.04;57.24
48882;BME280;57063;51.406;-2.402;2023-02-22T13:27:18;100147.53;;;13.59;53.22
48882;BME280;57063;51.406;-2.402;2023-02-22T13:29:51;100108.31;;;14.31;50.89
48882;BME280;57063;51.406;-2.402;2023-02-22T13:35:18;100143.19;;;15.37;48.00
48882;BME280;57063;51.406;-2.402;2023-02-22T13:37:58;100140.56;;;14.72;49.84
48882;BME280;57063;51.406;-2.402;2023-02-22T13:47:06;100141.13;;;12.19;55.33
48882;BME280;57063;51.406;-2.402;2023-02-22T13:56:36;100147.06;;;11.17;58.00
48882;BME280;57063;51.406;-2.402;2023-02-22T13:59:35;100151.94;;;11.34;58.23
48882;BME280;57063;51.406;-2.402;2023-02-22T14:02:03;100110.84;;;11.04;56.77
48882;BME280;57063;51.406;-2.402;2023-02-22T14:06:58;100104.38;;;10.84;57.82
48882;BME280;57063;51.406;-2.402;2023-02-22T14:09:47;100141.97;;;11.16;57.72
48882;BME280;57063;51.406;-2.402;2023-02-22T14:17:47;100131.41;;;11.84;58.25
48882;BME280;57063;51.406;-2.402;2023-02-22T14:22:46;100143.63;;;11.69;57.91
48882;BME280;57063;51.406;-2.402;2023-02-22T14:25:31;100130.25;;;11.37;59.12
48882;BME280;57063;51.406;-2.402;2023-02-22T14:27:58;100131.31;;;11.07;59.50
48882;BME280;57063;51.406;-2.402;2023-02-22T14:30:30;100127.56;;;10.71;60.59
48882;BME280;57063;51.406;-2.402;2023-02-22T14:32:57;100136.38;;;10.82;59.95
48882;BME280;57063;51.406;-2.402;2023-02-22T14:35:25;100115.13;;;10.91;61.66
48882;BME280;57063;51.406;-2.402;2023-02-22T14:37:57;100135.69;;;11.20;60.36
48882;BME280;57063;51.406;-2.402;2023-02-22T14:40:33;100128.03;;;11.31;60.35
48882;BME280;57063;51.406;-2.402;2023-02-22T14:43:05;100123.50;;;11.22;59.81
48882;BME280;57063;51.406;-2.402;2023-02-22T14:45:36;100125.59;;;11.42;58.57
48882;BME280;57063;51.406;-2.402;2023-02-22T14:50:46;100162.47;;;11.97;57.75
48882;BME280;57063;51.406;-2.402;2023-02-22T14:53:36;100167.66;;;12.10;58.08
48882;BME280;57063;51.406;-2.402;2023-02-22T14:56:07;100153.16;;;11.94;59.35
48882;BME280;57063;51.406;-2.402;2023-02-22T14:58:40;100142.91;;;12.18;58.99
48882;BME280;57063;51.406;-2.402;2023-02-22T15:01:29;100155.69;;;12.46;57.65
48882;BME280;57063;51.406;-2.402;2023-02-22T15:03:55;100143.75;;;11.93;57.43